Time;durP1;ratioP1;P1;durP2;ratioP2;P2;SDS_P1;SDS_P2;PMS_P1;PMS_P2;Temp;Humidity;BMP_temperature;BMP_pressure;BME280_temperature;BME280_humidity;BME280_pressure;Samples;Min_cycle;Max_cycle;Signal;HPM_P1;HPM_P2
2024/01/08 00:01:39;;;;;;;8.85;4.95;;;0.80;99.90;;;;;;5022711;28;20246;-46
2024/01/08 00:04:06;;;;;;;9.20;5.35;;;0.80;99.90;;;;;;5023067;28;20195;-46
2024/01/08 00:06:32;;;;;;;7.57;5.03;;;0.80;99.90;;;;;;5023144;28;20188;-53
2024/01/08 00:08:59;;;;;;;9.43;5.40;;;0.80;99.90;;;;;;5022650;28;20215;-44
2024/01/08 00:11:25;;;;;;;8.13;5.10;;;0.80;99.90;;;;;;5014898;28;20237;-48
2024/01/08 00:13:51;;;;;;;7.90;4.70;;;0.80;99.90;;;;;;5018166;28;20188;-42
2024/01/08 00:16:17;;;;;;;10.32;5.45;;;0.70;99.90;;;;;;5023310;28;20192;-42
2024/01/08 00:18:43;;;;;;;8.82;5.07;;;0.70;99.90;;;;;;5022575;28;20211;-48
2024/01/08 00:21:09;;;;;;;8.85;4.88;;;0.60;99.90;;;;;;5022744;28;20691;-45
2024/01/08 00:23:35;;;;;;;8.70;5.32;;;0.50;99.90;;;;;;5022628;28;20176;-45
2024/01/08 00:26:01;;;;;;;10.57;5.05;;;0.40;99.90;;;;;;5022765;28;20192;-47
2024/01/08 00:28:27;;;;;;;9.52;4.70;;;0.40;99.90;;;;;;5022694;28;20254;-42
2024/01/08 00:30:53;;;;;;;11.40;5.80;;;0.30;99.90;;;;;;5013301;28;20206;-50
2024/01/08 00:33:19;;;;;;;11.65;5.40;;;0.20;99.90;;;;;;5022205;28;20566;-49
2024/01/08 00:35:45;;;;;;;10.45;5.90;;;0.10;99.90;;;;;;5022491;28;20192;-46
2024/01/08 00:38:11;;;;;;;9.90;5.40;;;0.10;99.90;;;;;;5022284;28;20219;-47
2024/01/08 00:40:37;;;;;;;12.75;5.35;;;0.00;99.90;;;;;;5022453;28;20196;-40
2024/01/08 00:43:03;;;;;;;14.15;6.50;;;0.00;99.90;;;;;;5022351;28;20196;-47
2024/01/08 00:45:29;;;;;;;8.70;5.38;;;-0.10;99.90;;;;;;5015258;28;20172;-39
2024/01/08 00:47:55;;;;;;;8.18;5.70;;;-0.10;99.90;;;;;;5015716;28;20227;-47
2024/01/08 00:50:22;;;;;;;9.23;5.88;;;-0.20;99.90;;;;;;5022284;28;20187;-49
2024/01/08 00:52:47;;;;;;;11.30;5.60;;;-0.20;99.90;;;;;;5021826;28;20204;-46
2024/01/08 00:55:13;;;;;;;9.60;5.93;;;-0.20;99.90;;;;;;5016167;28;20199;-48
2024/01/08 00:57:39;;;;;;;8.48;5.63;;;-0.20;99.90;;;;;;5021920;28;20204;-43
2024/01/08 01:00:08;;;;;;;11.85;6.03;;;-0.20;99.90;;;;;;5021537;28;20180;-47
2024/01/08 01:02:35;;;;;;;11.27;6.22;;;-0.30;99.90;;;;;;5018606;28;20202;-48
2024/01/08 01:05:01;;;;;;;12.32;5.72;;;-0.30;99.90;;;;;;5021267;28;20192;-44
2024/01/08 01:07:27;;;;;;;8.57;5.50;;;-0.30;99.90;;;;;;5021758;28;20310;-45
2024/01/08 01:09:55;;;;;;;13.45;5.93;;;-0.40;99.90;;;;;;5021839;28;20196;-52
2024/01/08 01:12:21;;;;;;;9.02;6.03;;;-0.50;99.90;;;;;;5021688;28;20184;-42
2024/01/08 01:14:46;;;;;;;11.23;5.88;;;-0.50;99.90;;;;;;5021900;28;20198;-47
2024/01/08 01:17:13;;;;;;;12.95;5.40;;;-0.50;99.90;;;;;;5021771;28;20212;-46
2024/01/08 01:19:39;;;;;;;10.88;5.85;;;-0.50;99.90;;;;;;5022276;28;20258;-47
2024/01/08 01:22:05;;;;;;;11.35;5.35;;;-0.50;99.90;;;;;;5021280;28;20176;-43
2024/01/08 01:24:31;;;;;;;12.77;6.53;;;-0.50;99.90;;;;;;5015162;28;20630;-46
2024/01/08 01:26:57;;;;;;;8.60;5.80;;;-0.50;99.90;;;;;;5021533;28;20201;-47
2024/01/08 01:29:23;;;;;;;9.77;5.75;;;-0.40;99.90;;;;;;5021158;28;20184;-47
2024/01/08 01:31:49;;;;;;;15.15;6.50;;;-0.40;99.90;;;;;;5021686;28;20816;-44
2024/01/08 01:34:17;;;;;;;13.60;7.00;;;-0.30;99.90;;;;;;5015134;28;20664;-45
2024/01/08 01:36:45;;;;;;;11.20;6.43;;;-0.30;99.90;;;;;;5016357;28;20247;-42
2024/01/08 01:39:10;;;;;;;9.68;5.75;;;-0.20;99.90;;;;;;5021592;28;20188;-46
2024/01/08 01:41:37;;;;;;;13.88;6.15;;;-0.10;99.90;;;;;;5021381;28;20186;-48
2024/01/08 01:44:03;;;;;;;10.60;6.50;;;-0.10;99.90;;;;;;5021275;28;20199;-48
2024/01/08 01:46:50;;;;;;;9.95;7.07;;;0.00;99.90;;;;;;5021498;28;20274;-46
2024/01/08 01:49:19;;;;;;;10.25;6.13;;;0.00;99.90;;;;;;5004188;28;20231;-47
2024/01/08 01:51:47;;;;;;;8.93;5.97;;;0.10;99.90;;;;;;5020984;28;21019;-47
2024/01/08 01:54:20;;;;;;;9.90;6.28;;;0.10;99.90;;;;;;5021170;28;20302;-42
2024/01/08 01:56:56;;;;;;;8.60;6.38;;;0.10;99.90;;;;;;5020760;28;20207;-47
2024/01/08 01:59:24;;;;;;;10.32;6.13;;;0.20;99.90;;;;;;5020854;28;20565;-50
2024/01/08 02:01:50;;;;;;;12.25;6.60;;;0.20;99.90;;;;;;5020489;28;20256;-43
2024/01/08 02:04:17;;;;;;;11.05;6.88;;;0.20;99.90;;;;;;5016488;28;20202;-42
2024/01/08 02:06:44;;;;;;;11.15;6.45;;;0.30;99.90;;;;;;5016560;28;20279;-42
2024/01/08 02:09:15;;;;;;;13.55;7.15;;;0.30;99.90;;;;;;5020752;28;20180;-42
2024/01/08 02:11:42;;;;;;;11.80;7.13;;;0.40;99.90;;;;;;5017521;28;20196;-41
2024/01/08 02:14:08;;;;;;;11.07;6.53;;;0.40;99.90;;;;;;5015922;28;20180;-43
2024/01/08 02:16:35;;;;;;;11.68;6.55;;;0.40;99.90;;;;;;5020953;28;20219;-39
2024/01/08 02:19:01;;;;;;;12.40;7.43;;;0.40;99.90;;;;;;5020608;28;20188;-43
2024/01/08 02:21:27;;;;;;;10.73;7.15;;;0.40;99.90;;;;;;5017895;28;20261;-47
2024/01/08 02:23:54;;;;;;;11.90;7.43;;;0.50;99.90;;;;;;5020375;28;20192;-49
2024/01/08 02:26:21;;;;;;;14.05;7.28;;;0.50;99.90;;;;;;5020835;28;20652;-43
2024/01/08 02:28:47;;;;;;;15.15;7.15;;;0.50;99.90;;;;;;5020924;28;20179;-41
2024/01/08 02:31:13;;;;;;;12.45;6.90;;;0.60;99.90;;;;;;5016769;28;20184;-43
2024/01/08 02:33:38;;;;;;;11.50;7.97;;;0.60;99.90;;;;;;5020550;28;20192;-42
2024/01/08 02:36:04;;;;;;;12.63;7.60;;;0.60;99.90;;;;;;5023652;28;20716;-43
2024/01/08 02:38:30;;;;;;;14.07;8.40;;;0.60;99.90;;;;;;5016778;28;20235;-46
2024/01/08 02:40:57;;;;;;;12.70;7.55;;;0.60;99.90;;;;;;5024489;28;20212;-50
2024/01/08 02:43:24;;;;;;;13.40;7.68;;;0.60;99.90;;;;;;5024466;28;20192;-44
2024/01/08 02:45:50;;;;;;;13.95;7.90;;;0.70;99.90;;;;;;5018464;28;20188;-42
2024/01/08 02:48:16;;;;;;;11.75;7.60;;;0.70;99.90;;;;;;5023412;28;20614;-50
2024/01/08 02:50:42;;;;;;;12.50;7.25;;;0.70;99.90;;;;;;5018915;28;20195;-47
2024/01/08 02:53:08;;;;;;;10.55;6.45;;;0.70;99.90;;;;;;5024254;28;20198;-45
2024/01/08 02:55:34;;;;;;;11.18;6.75;;;0.80;99.90;;;;;;5018688;28;20198;-43
2024/01/08 02:58:04;;;;;;;9.65;5.95;;;0.80;99.90;;;;;;5023391;28;20357;-50
2024/01/08 03:00:30;;;;;;;10.68;6.20;;;0.80;99.90;;;;;;5024709;28;20180;-47
2024/01/08 03:02:55;;;;;;;8.20;5.82;;;0.80;99.90;;;;;;5017019;28;20199;-46
2024/01/08 03:05:21;;;;;;;9.38;5.85;;;0.80;99.90;;;;;;5024198;28;20192;-49
2024/01/08 03:07:47;;;;;;;9.90;5.85;;;0.90;99.90;;;;;;5023716;28;20215;-48
2024/01/08 03:10:13;;;;;;;10.27;6.43;;;0.90;99.90;;;;;;5024284;28;20191;-43
2024/01/08 03:12:39;;;;;;;10.38;6.05;;;0.90;99.90;;;;;;5024017;28;20199;-47
2024/01/08 03:15:05;;;;;;;9.57;5.90;;;0.90;99.90;;;;;;5024064;28;20210;-47
2024/01/08 03:17:31;;;;;;;9.25;5.63;;;0.90;99.90;;;;;;5023374;28;20207;-49
2024/01/08 03:19:57;;;;;;;8.63;5.88;;;0.90;99.90;;;;;;5023890;28;20265;-44
2024/01/08 03:22:23;;;;;;;9.75;5.80;;;0.90;99.90;;;;;;5023650;28;20222;-44
2024/01/08 03:24:49;;;;;;;11.05;6.45;;;0.90;99.90;;;;;;5020507;28;20200;-45
2024/01/08 03:27:15;;;;;;;9.65;6.22;;;0.90;99.90;;;;;;5023960;28;20184;-43
2024/01/08 03:29:41;;;;;;;12.77;6.35;;;1.00;99.90;;;;;;5023712;28;20682;-45
2024/01/08 03:32:09;;;;;;;13.00;6.07;;;1.00;99.90;;;;;;5018912;28;20706;-47
2024/01/08 03:34:35;;;;;;;13.20;6.53;;;1.00;99.90;;;;;;5023449;28;20648;-45
2024/01/08 03:37:01;;;;;;;9.75;6.00;;;0.90;99.90;;;;;;5023256;28;20227;-46
2024/01/08 03:39:26;;;;;;;9.52;6.28;;;0.90;99.90;;;;;;5023673;28;20187;-49
2024/01/08 03:41:52;;;;;;;10.32;6.28;;;1.00;99.90;;;;;;5018789;28;20203;-49
2024/01/08 03:44:18;;;;;;;10.40;6.38;;;1.00;99.90;;;;;;5019106;28;20188;-42
2024/01/08 03:46:44;;;;;;;10.07;6.13;;;1.00;99.90;;;;;;5022001;28;20192;-39
2024/01/08 03:49:11;;;;;;;9.32;5.78;;;1.00;99.90;;;;;;5023010;28;20285;-45
2024/01/08 03:51:37;;;;;;;12.27;6.28;;;1.00;99.90;;;;;;5023455;28;20199;-46
2024/01/08 03:54:03;;;;;;;9.38;6.40;;;1.00;99.90;;;;;;5023189;28;20188;-44
2024/01/08 03:56:29;;;;;;;13.40;6.25;;;1.00;99.90;;;;;;5017769;28;20242;-50
2024/01/08 03:58:55;;;;;;;9.75;6.18;;;1.00;99.90;;;;;;5022753;28;20211;-49
2024/01/08 04:01:21;;;;;;;9.05;5.85;;;1.10;99.90;;;;;;5023056;28;20737;-44
2024/01/08 04:03:47;;;;;;;8.25;4.95;;;1.00;99.90;;;;;;5023043;28;20220;-44
2024/01/08 04:06:13;;;;;;;13.18;6.13;;;1.00;99.90;;;;;;5023072;28;20268;-50
2024/01/08 04:08:39;;;;;;;7.95;5.05;;;0.90;99.90;;;;;;5022681;28;20196;-46
2024/01/08 04:11:04;;;;;;;12.23;5.05;;;0.90;99.90;;;;;;5022739;28;20188;-45
2024/01/08 04:13:31;;;;;;;10.07;5.97;;;0.90;99.90;;;;;;5022570;28;20194;-53
2024/01/08 04:15:57;;;;;;;11.10;5.28;;;0.90;99.90;;;;;;5023148;28;20192;-45
2024/01/08 04:18:23;;;;;;;11.40;6.40;;;0.90;99.90;;;;;;5022531;28;20207;-43
2024/01/08 04:20:49;;;;;;;9.00;5.45;;;0.90;99.90;;;;;;5022662;28;20188;-43
2024/01/08 04:23:14;;;;;;;10.25;5.93;;;0.90;99.90;;;;;;5018166;28;20188;-45
2024/01/08 04:25:40;;;;;;;9.77;5.63;;;0.90;99.90;;;;;;5022408;28;20168;-44
2024/01/08 04:28:08;;;;;;;11.23;6.18;;;0.90;99.90;;;;;;5022916;28;20215;-42
2024/01/08 04:30:34;;;;;;;11.70;5.80;;;0.90;99.90;;;;;;5022448;28;20655;-45
2024/01/08 04:33:00;;;;;;;8.57;5.63;;;0.90;99.90;;;;;;5022401;28;20202;-42
2024/01/08 04:35:26;;;;;;;10.43;5.47;;;0.90;99.90;;;;;;5022027;28;20184;-47
2024/01/08 04:37:52;;;;;;;8.77;5.32;;;0.90;99.90;;;;;;5022328;28;20738;-45
2024/01/08 04:40:18;;;;;;;10.75;5.40;;;0.80;99.90;;;;;;5022154;28;20184;-47
2024/01/08 04:42:43;;;;;;;8.20;4.68;;;0.80;99.90;;;;;;5021987;28;20553;-44
2024/01/08 04:45:09;;;;;;;9.25;4.90;;;0.80;99.90;;;;;;5022488;28;20188;-47
2024/01/08 04:47:35;;;;;;;10.20;4.85;;;0.70;99.90;;;;;;5021928;28;20278;-54
2024/01/08 04:50:02;;;;;;;9.30;5.25;;;0.70;99.90;;;;;;5022496;28;20567;-47
2024/01/08 04:52:28;;;;;;;10.40;4.78;;;0.70;99.90;;;;;;5021482;28;20303;-47
2024/01/08 04:54:54;;;;;;;7.95;5.05;;;0.60;99.90;;;;;;5021837;28;20286;-45
2024/01/08 04:57:20;;;;;;;7.70;4.43;;;0.60;99.90;;;;;;5021454;28;21134;-46
2024/01/08 04:59:46;;;;;;;8.13;4.45;;;0.50;99.90;;;;;;5021891;28;20188;-43
2024/01/08 05:02:12;;;;;;;8.60;5.20;;;0.40;99.90;;;;;;5014600;28;20604;-43
2024/01/08 05:04:38;;;;;;;7.97;4.88;;;0.30;99.90;;;;;;5021862;28;20211;-44
2024/01/08 05:07:04;;;;;;;7.82;4.70;;;0.20;99.90;;;;;;5021328;28;20640;-41
2024/01/08 05:09:30;;;;;;;9.93;5.03;;;0.10;99.90;;;;;;5016143;28;20252;-41
2024/01/08 05:11:57;;;;;;;8.32;5.20;;;0.00;99.90;;;;;;5021443;28;20207;-40
2024/01/08 05:14:22;;;;;;;9.50;5.10;;;0.00;99.90;;;;;;5016446;28;20682;-44
2024/01/08 05:16:48;;;;;;;9.10;4.40;;;-0.10;99.90;;;;;;5021756;28;20196;-45
2024/01/08 05:19:14;;;;;;;7.70;4.57;;;-0.10;99.90;;;;;;5022127;28;20230;-48
2024/01/08 05:21:40;;;;;;;10.55;4.95;;;-0.20;99.90;;;;;;5022124;28;20195;-46
2024/01/08 05:24:07;;;;;;;9.02;4.80;;;-0.30;99.90;;;;;;5004182;28;20191;-43
2024/01/08 05:26:33;;;;;;;8.13;4.97;;;-0.30;99.90;;;;;;5021364;28;20211;-48
2024/01/08 05:28:59;;;;;;;7.78;4.85;;;-0.30;99.90;;;;;;5020327;28;20231;-41
2024/01/08 05:31:25;;;;;;;9.50;5.05;;;-0.40;99.90;;;;;;5021316;28;20241;-47
2024/01/08 05:33:51;;;;;;;7.85;5.30;;;-0.40;99.90;;;;;;5020888;28;20180;-44
2024/01/08 05:36:17;;;;;;;8.65;4.65;;;-0.50;99.90;;;;;;5014620;28;20180;-46
2024/01/08 05:38:43;;;;;;;7.75;5.28;;;-0.40;99.90;;;;;;5021216;28;20203;-43
2024/01/08 05:41:09;;;;;;;9.85;5.28;;;-0.40;99.90;;;;;;5021104;28;20219;-46
2024/01/08 05:43:37;;;;;;;9.00;4.90;;;-0.40;99.90;;;;;;5021332;28;20191;-44
2024/01/08 05:46:05;;;;;;;7.88;5.30;;;-0.40;99.90;;;;;;5020794;28;20194;-41
2024/01/08 05:48:37;;;;;;;8.55;5.20;;;-0.40;99.90;;;;;;5021138;28;20242;-41
2024/01/08 05:51:04;;;;;;;8.57;4.97;;;-0.40;99.90;;;;;;5020855;28;20183;-48
2024/01/08 05:53:31;;;;;;;7.05;5.20;;;-0.50;99.90;;;;;;5017885;28;20210;-48
2024/01/08 05:55:57;;;;;;;9.60;4.60;;;-0.50;99.90;;;;;;5012357;28;20210;-45
2024/01/08 05:58:23;;;;;;;7.88;5.10;;;-0.50;99.90;;;;;;5020510;28;20219;-45
2024/01/08 06:00:49;;;;;;;10.30;5.05;;;-0.60;99.90;;;;;;5016860;28;20257;-45
2024/01/08 06:03:15;;;;;;;8.47;5.17;;;-0.60;99.90;;;;;;5021054;28;20196;-43
2024/01/08 06:05:41;;;;;;;11.02;5.40;;;-0.60;99.90;;;;;;5021124;28;20722;-47
2024/01/08 06:08:08;;;;;;;9.77;5.38;;;-0.60;99.90;;;;;;5021037;28;20188;-41
2024/01/08 06:10:34;;;;;;;9.90;5.28;;;-0.60;99.90;;;;;;5022022;28;20659;-44
2024/01/08 06:13:00;;;;;;;11.38;5.40;;;-0.60;99.90;;;;;;5025352;28;20271;-42
2024/01/08 06:15:26;;;;;;;9.88;5.40;;;-0.70;99.90;;;;;;5024828;28;20577;-45
2024/01/08 06:17:52;;;;;;;12.07;5.30;;;-0.70;99.90;;;;;;5023996;28;20219;-42
2024/01/08 06:20:18;;;;;;;9.45;4.55;;;-0.70;99.90;;;;;;5025006;28;20188;-50
2024/01/08 06:22:43;;;;;;;10.60;5.35;;;-0.70;99.90;;;;;;5020277;28;20533;-46
2024/01/08 06:25:09;;;;;;;8.80;5.13;;;-0.60;99.90;;;;;;5024581;28;20187;-44
2024/01/08 06:27:35;;;;;;;9.30;5.38;;;-0.60;99.90;;;;;;5024499;28;20202;-43
2024/01/08 06:30:01;;;;;;;10.38;4.82;;;-0.60;99.90;;;;;;5024295;28;20191;-44
2024/01/08 06:32:27;;;;;;;10.25;5.15;;;-0.50;99.90;;;;;;5019050;28;20183;-44
2024/01/08 06:34:53;;;;;;;7.72;4.70;;;-0.40;99.90;;;;;;5022714;28;20204;-46
2024/01/08 06:37:19;;;;;;;13.27;4.68;;;-0.40;99.90;;;;;;5023923;28;20211;-41
2024/01/08 06:39:45;;;;;;;11.83;5.10;;;-0.30;99.90;;;;;;5024326;28;20539;-42
2024/01/08 06:42:10;;;;;;;7.13;4.32;;;-0.30;99.90;;;;;;5024101;28;20188;-46
2024/01/08 06:44:36;;;;;;;12.20;4.70;;;-0.20;99.90;;;;;;5021220;28;20269;-44
2024/01/08 06:47:02;;;;;;;11.80;4.97;;;-0.10;99.90;;;;;;5024456;28;20203;-46
2024/01/08 06:49:28;;;;;;;11.88;4.40;;;-0.10;99.90;;;;;;5023654;28;20238;-47
2024/01/08 06:51:54;;;;;;;10.63;5.00;;;-0.10;99.90;;;;;;5024001;28;20250;-47
2024/01/08 06:54:20;;;;;;;12.57;4.50;;;0.00;99.90;;;;;;5024113;28;20274;-41
2024/01/08 06:56:46;;;;;;;7.38;4.40;;;0.00;99.90;;;;;;5024139;28;20286;-45
2024/01/08 06:59:14;;;;;;;13.50;4.97;;;0.10;99.90;;;;;;5023914;28;20187;-50
2024/01/08 07:01:40;;;;;;;10.32;4.60;;;0.10;99.90;;;;;;5024006;28;20257;-43
2024/01/08 07:04:05;;;;;;;8.85;4.38;;;0.20;99.90;;;;;;5003094;28;20735;-50
2024/01/08 07:06:32;;;;;;;8.23;4.60;;;0.20;99.90;;;;;;5019805;28;20195;-49
2024/01/08 07:08:58;;;;;;;8.93;4.80;;;0.30;99.90;;;;;;5023030;28;20311;-50
2024/01/08 07:11:24;;;;;;;8.32;4.20;;;0.30;99.90;;;;;;5017578;28;20365;-50
2024/01/08 07:13:51;;;;;;;12.02;5.13;;;0.30;99.90;;;;;;5019782;28;20243;-43
2024/01/08 07:16:18;;;;;;;11.93;5.00;;;0.30;99.90;;;;;;5022164;28;20572;-47
2024/01/08 07:18:45;;;;;;;8.32;4.90;;;0.40;99.90;;;;;;5022654;28;20227;-42
2024/01/08 07:21:16;;;;;;;8.27;4.50;;;0.40;99.90;;;;;;5017629;28;20196;-53
2024/01/08 07:23:45;;;;;;;9.18;4.70;;;0.40;99.90;;;;;;5023390;28;20597;-52
2024/01/08 07:26:14;;;;;;;9.15;4.57;;;0.40;99.90;;;;;;5023846;28;20217;-43
2024/01/08 07:28:42;;;;;;;10.98;5.03;;;0.40;99.90;;;;;;4998469;28;20200;-45
2024/01/08 07:31:08;;;;;;;8.98;4.30;;;0.50;99.90;;;;;;4997801;28;20194;-48
2024/01/08 07:33:36;;;;;;;10.13;4.35;;;0.50;99.90;;;;;;4990844;28;20188;-47
2024/01/08 07:36:04;;;;;;;14.43;4.72;;;0.60;99.90;;;;;;5003828;28;20199;-53
2024/01/08 07:38:30;;;;;;;11.30;5.05;;;0.60;99.90;;;;;;5017429;28;20207;-46
2024/01/08 07:40:56;;;;;;;10.65;4.47;;;0.60;99.90;;;;;;5007632;28;20194;-41
2024/01/08 07:43:22;;;;;;;9.05;5.20;;;0.60;99.90;;;;;;5022518;28;20227;-41
2024/01/08 07:45:48;;;;;;;12.27;4.95;;;0.70;99.90;;;;;;5018204;28;20183;-47
2024/01/08 07:48:13;;;;;;;9.68;4.20;;;0.70;99.90;;;;;;5014862;28;20239;-49
2024/01/08 07:50:39;;;;;;;8.82;4.65;;;0.80;99.90;;;;;;5019500;28;20303;-44
2024/01/08 07:53:05;;;;;;;6.13;3.50;;;0.70;99.90;;;;;;5013211;28;20628;-42
2024/01/08 07:55:31;;;;;;;8.50;4.25;;;0.80;99.90;;;;;;5022407;28;21103;-42
2024/01/08 07:57:58;;;;;;;9.35;4.50;;;0.80;99.90;;;;;;5022543;28;20215;-44
2024/01/08 08:00:25;;;;;;;7.72;3.50;;;0.80;99.90;;;;;;5016210;28;20282;-44
2024/01/08 08:02:51;;;;;;;8.65;4.18;;;0.80;99.90;;;;;;4997531;28;20265;-41
2024/01/08 08:05:17;;;;;;;8.13;4.70;;;0.90;99.90;;;;;;5022445;28;21196;-49
2024/01/08 08:07:43;;;;;;;9.05;4.10;;;0.90;99.90;;;;;;5021644;28;20282;-47
2024/01/08 08:10:10;;;;;;;11.77;4.45;;;0.90;99.90;;;;;;5013768;28;20270;-52
2024/01/08 08:12:36;;;;;;;7.32;4.10;;;0.90;99.90;;;;;;4999929;28;20635;-49
2024/01/08 08:15:02;;;;;;;6.10;3.90;;;0.90;99.90;;;;;;5022866;28;20260;-43
2024/01/08 08:17:28;;;;;;;9.07;4.35;;;1.00;99.90;;;;;;5021788;28;20234;-47
2024/01/08 08:19:54;;;;;;;7.68;4.63;;;1.00;99.90;;;;;;5022243;28;20653;-42
2024/01/08 08:22:20;;;;;;;7.05;3.97;;;1.00;99.90;;;;;;5005073;28;20200;-49
2024/01/08 08:24:48;;;;;;;10.93;4.57;;;1.00;99.90;;;;;;5014763;28;20184;-44
2024/01/08 08:27:14;;;;;;;9.60;4.40;;;1.10;99.90;;;;;;5016501;28;20211;-47
2024/01/08 08:29:42;;;;;;;10.63;4.53;;;1.10;99.90;;;;;;5006703;28;20268;-45
2024/01/08 08:32:08;;;;;;;8.18;4.15;;;1.10;99.90;;;;;;4967512;28;20212;-48
2024/01/08 08:34:35;;;;;;;10.30;4.43;;;1.10;99.90;;;;;;4996413;28;20187;-44
2024/01/08 08:37:02;;;;;;;11.05;4.43;;;1.10;99.90;;;;;;5021020;28;20203;-46
2024/01/08 08:39:28;;;;;;;12.32;4.40;;;1.10;99.90;;;;;;5017917;28;20195;-50
2024/01/08 08:41:56;;;;;;;8.05;4.18;;;1.20;99.90;;;;;;5022231;28;20203;-46
2024/01/08 08:44:23;;;;;;;9.63;3.92;;;1.20;99.90;;;;;;5022164;28;20263;-47
2024/01/08 08:46:49;;;;;;;8.27;4.05;;;1.20;99.90;;;;;;5020470;28;20195;-45
2024/01/08 08:49:16;;;;;;;8.93;4.00;;;1.20;99.90;;;;;;5005082;28;20239;-47
2024/01/08 08:51:45;;;;;;;6.70;3.80;;;1.30;99.90;;;;;;4984870;28;20672;-47
2024/01/08 08:54:11;;;;;;;10.77;4.00;;;1.30;99.90;;;;;;5016878;28;20192;-48
2024/01/08 08:56:37;;;;;;;9.98;3.58;;;1.30;99.90;;;;;;5022045;28;20262;-49
2024/01/08 08:59:04;;;;;;;6.53;3.40;;;1.30;99.90;;;;;;5020778;28;20224;-47
2024/01/08 09:01:29;;;;;;;7.70;3.90;;;1.30;99.90;;;;;;5015779;28;20647;-43
2024/01/08 09:03:55;;;;;;;7.20;4.00;;;1.40;99.90;;;;;;5021269;28;20208;-47
2024/01/08 09:06:27;;;;;;;10.57;4.00;;;1.40;99.90;;;;;;5015957;28;20188;-45
2024/01/08 09:08:57;;;;;;;6.82;3.65;;;1.40;99.90;;;;;;5015621;28;20667;-51
2024/01/08 09:11:23;;;;;;;11.18;3.55;;;1.50;99.90;;;;;;5021369;28;20249;-42
2024/01/08 09:13:49;;;;;;;8.18;3.40;;;1.50;99.90;;;;;;5021135;28;21039;-43
2024/01/08 09:16:16;;;;;;;5.95;3.20;;;1.50;99.90;;;;;;4987829;28;20290;-45
2024/01/08 09:18:43;;;;;;;7.43;3.85;;;1.60;99.90;;;;;;5020878;28;20212;-47
2024/01/08 09:21:10;;;;;;;7.43;3.63;;;1.60;99.90;;;;;;5021405;28;20202;-45
2024/01/08 09:23:36;;;;;;;7.80;3.13;;;1.60;99.90;;;;;;5021435;28;20192;-45
2024/01/08 09:26:04;;;;;;;7.22;3.13;;;1.70;99.90;;;;;;5022064;28;20182;-42
2024/01/08 09:28:31;;;;;;;5.75;3.50;;;1.70;99.90;;;;;;5020944;28;20254;-52
2024/01/08 09:30:58;;;;;;;7.72;3.15;;;1.70;99.90;;;;;;5021218;28;20290;-44
2024/01/08 09:33:24;;;;;;;5.55;3.47;;;1.60;99.90;;;;;;5021267;28;20951;-44
2024/01/08 09:35:50;;;;;;;7.75;3.58;;;1.60;99.90;;;;;;5021290;28;20223;-49
2024/01/08 09:38:16;;;;;;;9.32;3.95;;;1.60;99.90;;;;;;5020789;28;21266;-47
2024/01/08 09:40:42;;;;;;;7.78;3.63;;;1.70;99.90;;;;;;5020909;28;20244;-44
2024/01/08 09:43:09;;;;;;;6.07;3.50;;;1.60;99.90;;;;;;5020306;28;20196;-42
2024/01/08 09:45:45;;;;;;;4.68;2.92;;;1.60;99.90;;;;;;5020709;28;20301;-40
2024/01/08 09:48:11;;;;;;;7.00;3.58;;;1.60;99.90;;;;;;5020128;28;20188;-48
2024/01/08 09:50:38;;;;;;;5.10;3.05;;;1.60;99.90;;;;;;5019827;28;20200;-46
2024/01/08 09:53:04;;;;;;;5.70;3.25;;;1.70;99.90;;;;;;5020083;28;20188;-40
2024/01/08 09:55:31;;;;;;;7.35;4.50;;;1.70;99.90;;;;;;5014112;28;20188;-45
2024/01/08 09:57:57;;;;;;;6.88;3.42;;;1.70;99.90;;;;;;4999532;28;20310;-46
2024/01/08 10:00:23;;;;;;;9.13;4.43;;;1.70;99.90;;;;;;5020383;28;20202;-46
2024/01/08 10:02:56;;;;;;;7.53;3.90;;;1.70;99.90;;;;;;4996991;28;21123;-52
2024/01/08 10:05:22;;;;;;;7.97;4.10;;;1.80;99.90;;;;;;5020477;28;20191;-58
2024/01/08 10:07:49;;;;;;;8.73;4.00;;;1.80;99.90;;;;;;5019976;28;20196;-57
2024/01/08 10:10:14;;;;;;;8.18;3.83;;;1.90;99.90;;;;;;5019924;28;20207;-55
2024/01/08 10:12:42;;;;;;;7.43;3.97;;;1.90;99.90;;;;;;5016519;28;20192;-54
2024/01/08 10:15:10;;;;;;;6.80;3.95;;;1.90;99.90;;;;;;5019233;28;20555;-56
2024/01/08 10:17:36;;;;;;;9.55;4.13;;;2.00;99.90;;;;;;5019472;28;21025;-56
2024/01/08 10:20:08;;;;;;;12.18;4.00;;;2.00;99.90;;;;;;5019609;28;20211;-57
2024/01/08 10:22:34;;;;;;;4.78;3.33;;;2.00;99.90;;;;;;5020165;28;20266;-54
2024/01/08 10:25:02;;;;;;;7.65;3.88;;;2.00;99.90;;;;;;5019763;28;20203;-54
2024/01/08 10:27:29;;;;;;;9.18;4.28;;;1.90;99.90;;;;;;5020171;28;20196;-58
2024/01/08 10:29:56;;;;;;;6.82;4.20;;;2.00;99.90;;;;;;5019684;28;20203;-57
2024/01/08 10:32:25;;;;;;;7.75;4.13;;;2.00;99.90;;;;;;5019647;28;20244;-57
2024/01/08 10:34:51;;;;;;;9.13;4.20;;;2.00;99.90;;;;;;5019777;28;20200;-57
2024/01/08 10:37:21;;;;;;;10.10;4.53;;;2.00;99.90;;;;;;5019536;28;20207;-54
2024/01/08 10:39:48;;;;;;;7.63;4.38;;;2.10;99.90;;;;;;5020015;28;20198;-58
2024/01/08 10:42:17;;;;;;;9.35;4.80;;;2.10;99.90;;;;;;5019719;28;20223;-53
2024/01/08 10:44:43;;;;;;;8.93;3.65;;;2.10;99.90;;;;;;5019854;28;20179;-51
2024/01/08 10:47:10;;;;;;;8.23;4.18;;;2.10;99.90;;;;;;5016033;28;20262;-54
2024/01/08 10:49:37;;;;;;;9.05;4.45;;;2.10;99.90;;;;;;4973556;28;1095758;-60
2024/01/08 10:52:27;;;;;;;7.18;3.70;;;2.10;99.90;;;;;;5020649;28;20196;-52
2024/01/08 10:54:58;;;;;;;8.65;3.80;;;2.10;99.90;;;;;;5020460;28;20196;-54
2024/01/08 10:57:42;;;;;;;4.78;3.17;;;2.10;99.90;;;;;;5006114;28;20705;-55
2024/01/08 11:00:12;;;;;;;7.50;3.35;;;2.10;99.90;;;;;;5019734;28;20341;-54
2024/01/08 11:02:40;;;;;;;4.50;2.88;;;2.10;99.90;;;;;;5024269;28;20266;-55
2024/01/08 11:05:12;;;;;;;4.25;2.92;;;2.10;99.90;;;;;;5024183;28;20210;-57
2024/01/08 11:07:40;;;;;;;10.00;3.92;;;2.10;99.90;;;;;;5018608;28;20199;-59
2024/01/08 11:10:09;;;;;;;7.65;3.28;;;2.20;99.90;;;;;;5024167;28;20209;-57
2024/01/08 11:12:41;;;;;;;8.35;3.60;;;2.20;99.90;;;;;;5023897;28;20196;-56
2024/01/08 11:15:09;;;;;;;4.32;3.20;;;2.30;99.90;;;;;;5024374;28;20196;-54
2024/01/08 11:17:35;;;;;;;9.02;3.50;;;2.30;99.90;;;;;;5023053;28;20617;-57
2024/01/08 11:20:05;;;;;;;7.47;3.50;;;2.30;99.90;;;;;;5017430;28;20184;-55
2024/01/08 11:22:33;;;;;;;7.63;3.42;;;2.30;99.90;;;;;;5023553;28;20806;-55
2024/01/08 11:24:59;;;;;;;5.85;3.53;;;2.40;99.90;;;;;;5005501;28;20192;-51
2024/01/08 11:27:25;;;;;;;7.88;3.47;;;2.40;99.90;;;;;;5004682;28;20200;-56
2024/01/08 11:30:01;;;;;;;6.18;3.55;;;2.40;99.90;;;;;;5016210;28;20245;-58
2024/01/08 11:33:13;;;;;;;6.20;3.95;;;2.40;99.90;;;;;;5022538;28;20195;-58
2024/01/08 11:35:44;;;;;;;5.45;3.53;;;2.40;99.90;;;;;;5022494;28;20210;-55
2024/01/08 11:38:29;;;;;;;7.65;3.75;;;2.40;99.90;;;;;;5023341;28;20205;-52
2024/01/08 11:40:55;;;;;;;8.00;3.05;;;2.50;99.90;;;;;;5022974;28;20192;-57
2024/01/08 11:43:22;;;;;;;6.93;3.15;;;2.40;99.90;;;;;;5023292;28;20643;-56
2024/01/08 11:45:48;;;;;;;6.00;3.33;;;2.40;99.90;;;;;;5022768;28;20180;-58
2024/01/08 11:48:14;;;;;;;6.90;3.50;;;2.30;99.90;;;;;;5022893;28;20230;-57
2024/01/08 11:50:43;;;;;;;6.57;3.45;;;2.30;99.90;;;;;;5023648;28;20200;-58
2024/01/08 11:53:10;;;;;;;8.40;3.60;;;2.30;99.90;;;;;;5022479;28;20187;-61
2024/01/08 11:55:36;;;;;;;7.13;3.85;;;2.30;99.90;;;;;;5022359;28;20196;-56
2024/01/08 11:58:05;;;;;;;4.32;2.80;;;2.30;99.90;;;;;;5022400;28;20214;-57
2024/01/08 12:00:31;;;;;;;8.70;3.17;;;2.40;99.90;;;;;;5017240;28;20188;-55
2024/01/08 12:03:09;;;;;;;5.28;3.03;;;2.30;99.90;;;;;;5022146;28;20261;-55
2024/01/08 12:05:36;;;;;;;4.97;2.92;;;2.20;99.90;;;;;;5022542;28;20191;-55
2024/01/08 12:08:03;;;;;;;4.70;3.15;;;2.20;99.90;;;;;;5012762;28;20187;-57
2024/01/08 12:10:30;;;;;;;5.10;2.90;;;2.10;99.90;;;;;;5022783;28;20203;-56
2024/01/08 12:12:56;;;;;;;9.23;3.60;;;2.10;99.90;;;;;;5003501;28;20219;-56
2024/01/08 12:15:23;;;;;;;6.70;3.55;;;2.00;99.90;;;;;;5022514;28;20577;-55
2024/01/08 12:17:48;;;;;;;8.95;4.53;;;2.00;99.90;;;;;;5023103;28;20211;-54
2024/01/08 12:20:14;;;;;;;8.77;3.95;;;2.10;99.90;;;;;;5022107;28;20745;-53
2024/01/08 12:22:40;;;;;;;5.53;3.30;;;2.10;99.90;;;;;;5022473;28;20533;-58
2024/01/08 12:25:09;;;;;;;6.55;2.90;;;2.20;99.90;;;;;;5022388;28;20184;-56
2024/01/08 12:27:35;;;;;;;5.95;3.33;;;2.20;99.90;;;;;;5017203;28;20271;-58
2024/01/08 12:30:03;;;;;;;5.85;3.60;;;2.20;99.90;;;;;;5022465;28;20759;-58
2024/01/08 12:32:31;;;;;;;4.95;3.58;;;2.20;99.90;;;;;;5021524;28;20188;-55
2024/01/08 12:35:00;;;;;;;4.93;3.13;;;2.20;99.90;;;;;;5018712;28;20629;-56
2024/01/08 12:37:32;;;;;;;5.72;3.60;;;2.10;99.90;;;;;;5016231;28;20299;-58
2024/01/08 12:39:58;;;;;;;5.75;3.60;;;2.10;99.90;;;;;;5022550;28;20200;-53
2024/01/08 12:42:26;;;;;;;6.47;3.70;;;2.10;99.90;;;;;;5021836;28;20187;-55
2024/01/08 12:44:53;;;;;;;5.40;3.33;;;1.90;99.90;;;;;;5022149;28;20207;-53
2024/01/08 12:47:19;;;;;;;9.98;3.42;;;1.80;99.90;;;;;;5022108;28;20191;-53
2024/01/08 12:49:45;;;;;;;10.77;3.70;;;1.80;99.90;;;;;;5021855;28;20290;-52